Time,TemperatureF,DewpointF,PressureIn,WindDirection,WindDirectionDegrees,WindSpeedMPH,WindSpeedGustMPH,Humidity,HourlyPrecipIn,Conditions,Clouds,dailyrainin,SoftwareType,DateUTC
2013-02-04 00:01:00,43.9,40.9,30.17,NNW,329,0.0,0.0,89,0.00,,SKC,0.00,VWS V13.01,2013-02-04 08:01:00,
2013-02-04 00:11:00,43.8,40.8,30.17,NNW,329,0.0,0.0,89,0.00,,SKC,0.00,VWS V13.01,2013-02-04 08:11:00,
2013-02-04 00:21:00,43.6,40.6,30.16,NNW,329,0.0,0.0,89,0.00,,SKC,0.00,VWS V13.01,2013-02-04 08:21:00,
2013-02-04 00:31:00,43.5,40.5,30.17,NNW,329,0.0,0.0,89,0.00,,SKC,0.00,VWS V13.01,2013-02-04 08:31:00,
2013-02-04 00:41:00,43.3,40.3,30.17,NNW,329,0.0,0.0,89,0.00,,SKC,0.00,VWS V13.01,2013-02-04 08:41:00,
2013-02-04 00:51:00,43.3,40.3,30.17,NNW,329,0.0,0.0,89,0.00,,SKC,0.00,VWS V13.01,2013-02-04 08:51:00,
2013-02-04 01:01:00,43.1,40.1,30.15,NNW,329,0.0,0.0,89,0.00,,SKC,0.00,VWS V13.01,2013-02-04 09:01:00,
2013-02-04 01:11:00,43.1,40.4,30.15,NNW,329,0.0,0.0,90,0.00,,SKC,0.00,VWS V13.01,2013-02-04 09:11:00,
2013-02-04 01:21:00,42.9,40.2,30.16,NNW,329,0.0,0.0,90,0.00,,SKC,0.00,VWS V13.01,2013-02-04 09:21:00,
2013-02-04 01:31:00,42.9,40.2,30.16,East,91,0.0,0.0,90,0.00,,SKC,0.00,VWS V13.01,2013-02-04 09:31:00,
2013-02-04 01:41:00,42.9,40.2,30.16,East,91,0.0,0.0,90,0.00,,SKC,0.00,VWS V13.01,2013-02-04 09:41:00,
2013-02-04 01:51:00,42.9,40.2,30.15,East,91,0.0,0.0,90,0.00,,SKC,0.00,VWS V13.01,2013-02-04 09:51:00,
2013-02-04 02:01:00,42.9,40.2,30.16,East,91,0.0,0.0,90,0.00,,SKC,0.00,VWS V13.01,2013-02-04 10:01:00,
2013-02-04 02:11:00,42.9,40.2,30.16,East,91,0.0,0.0,90,0.00,,SKC,0.00,VWS V13.01,2013-02-04 10:11:00,
2013-02-04 02:21:00,42.9,40.2,30.16,East,91,0.0,0.0,90,0.00,,SKC,0.00,VWS V13.01,2013-02-04 10:21:00,
2013-02-04 02:31:00,42.9,40.2,30.17,East,91,0.0,0.0,90,0.00,,SKC,0.00,VWS V13.01,2013-02-04 10:31:00,
2013-02-04 02:41:00,42.9,40.2,30.17,East,91,0.0,0.0,90,0.00,,SKC,0.00,VWS V13.01,2013-02-04 10:41:00,
2013-02-04 02:51:00,42.9,39.9,30.16,SSE,147,0.0,0.0,89,0.00,,SKC,0.00,VWS V13.01,2013-02-04 10:51:00,
2013-02-04 03:01:00,42.9,39.9,30.16,SSE,147,0.0,0.0,89,0.00,,SKC,0.00,VWS V13.01,2013-02-04 11:01:00,
2013-02-04 03:11:00,42.9,39.9,30.16,SSE,147,0.0,0.0,89,0.00,,SKC,0.00,VWS V13.01,2013-02-04 11:11:00,
2013-02-04 03:21:00,42.9,39.9,30.16,SSE,147,0.0,0.0,89,0.00,,SKC,0.00,VWS V13.01,2013-02-04 11:21:00,
2013-02-04 03:31:00,42.8,39.5,30.14,ESE,111,0.0,0.0,88,0.00,,SKC,0.00,VWS V13.01,2013-02-04 11:31:00,
2013-02-04 03:41:00,42.8,39.5,30.14,SE,125,0.0,0.0,88,0.00,,SKC,0.00,VWS V13.01,2013-02-04 11:41:00,
2013-02-04 03:51:00,42.8,39.2,30.14,ESE,120,0.0,0.0,87,0.00,,SKC,0.00,VWS V13.01,2013-02-04 11:51:00,
2013-02-04 04:01:00,42.8,39.2,30.13,ESE,115,0.0,0.0,87,0.00,,SKC,0.00,VWS V13.01,2013-02-04 12:01:00,
2013-02-04 04:11:00,42.8,38.9,30.13,ESE,119,0.0,0.0,86,0.00,,SKC,0.00,VWS V13.01,2013-02-04 12:11:00,
2013-02-04 04:21:00,42.8,38.6,30.13,ESE,105,0.0,0.0,85,0.00,,SKC,0.00,VWS V13.01,2013-02-04 12:21:00,
2013-02-04 04:31:00,42.8,38.3,30.13,ESE,121,0.0,0.0,84,0.00,,SKC,0.00,VWS V13.01,2013-02-04 12:31:00,
2013-02-04 04:41:00,42.8,38.3,30.13,ESE,113,0.0,0.0,84,0.00,,SKC,0.00,VWS V13.01,2013-02-04 12:41:00,
2013-02-04 04:51:00,42.8,38.3,30.13,ESE,115,0.0,0.0,84,0.00,,SKC,0.00,VWS V13.01,2013-02-04 12:51:00,
2013-02-04 05:01:00,42.8,38.3,30.14,East,99,0.0,0.0,84,0.00,,SKC,0.00,VWS V13.01,2013-02-04 13:01:00,
2013-02-04 05:11:00,42.8,38.0,30.14,ESE,115,0.0,0.0,83,0.00,,SKC,0.00,VWS V13.01,2013-02-04 13:11:00,
2013-02-04 05:21:00,42.8,38.0,30.14,ESE,103,0.0,0.0,83,0.00,,SKC,0.00,VWS V13.01,2013-02-04 13:21:00,
2013-02-04 05:31:00,42.8,38.0,30.12,SE,124,0.0,0.0,83,0.00,,SKC,0.00,VWS V13.01,2013-02-04 13:31:00,
2013-02-04 05:41:00,42.6,37.8,30.12,ESE,117,0.0,0.0,83,0.00,,SKC,0.00,VWS V13.01,2013-02-04 13:41:00,
2013-02-04 05:51:00,42.5,37.7,30.12,ESE,122,0.0,0.0,83,0.00,,SKC,0.00,VWS V13.01,2013-02-04 13:51:00,
2013-02-04 06:01:00,42.3,37.5,30.12,SE,139,0.0,0.0,83,0.00,,SKC,0.00,VWS V13.01,2013-02-04 14:01:00,
2013-02-04 06:11:00,42.2,37.1,30.12,East,99,0.0,0.0,82,0.00,,SKC,0.00,VWS V13.01,2013-02-04 14:11:00,
2013-02-04 06:21:00,42.1,37.3,30.12,East,100,0.0,0.0,83,0.00,,SKC,0.00,VWS V13.01,2013-02-04 14:21:00,
2013-02-04 06:31:00,41.9,37.1,30.12,ESE,117,0.0,0.0,83,0.00,,SKC,0.00,VWS V13.01,2013-02-04 14:31:00,
2013-02-04 06:41:00,41.8,37.0,30.12,ESE,115,0.0,0.0,83,0.00,,SKC,0.00,VWS V13.01,2013-02-04 14:41:00,
2013-02-04 06:51:00,41.6,36.8,30.11,ESE,102,0.0,0.0,83,0.00,,SKC,0.00,VWS V13.01,2013-02-04 14:51:00,
2013-02-04 07:01:00,41.6,36.5,30.11,ESE,110,0.0,0.0,82,0.00,,SKC,0.00,VWS V13.01,2013-02-04 15:01:00,
2013-02-04 07:11:00,41.6,36.5,30.11,ESE,120,0.0,0.0,82,0.00,,SKC,0.00,VWS V13.01,2013-02-04 15:11:00,
2013-02-04 07:21:00,41.6,36.5,30.11,SE,124,0.0,0.0,82,0.00,,SKC,0.00,VWS V13.01,2013-02-04 15:21:00,
2013-02-04 07:31:00,41.6,36.5,30.10,SE,127,0.0,0.0,82,0.00,,SKC,0.00,VWS V13.01,2013-02-04 15:31:00,
2013-02-04 07:41:00,41.6,36.5,30.10,SSE,149,0.0,0.0,82,0.00,,SKC,0.00,VWS V13.01,2013-02-04 15:41:00,
2013-02-04 07:51:00,41.6,36.5,30.11,ESE,119,0.0,0.0,82,0.00,,SKC,0.00,VWS V13.01,2013-02-04 15:51:00,
2013-02-04 08:01:00,41.8,36.4,30.10,East,94,0.0,0.0,81,0.00,,SKC,0.00,VWS V13.01,2013-02-04 16:01:00,
2013-02-04 08:11:00,41.9,36.5,30.10,ESE,105,0.0,0.0,81,0.00,,SKC,0.00,VWS V13.01,2013-02-04 16:11:00,
2013-02-04 08:21:00,42.1,36.7,30.11,SE,125,0.0,0.0,81,0.00,,SKC,0.00,VWS V13.01,2013-02-04 16:21:00,
2013-02-04 08:41:00,42.2,36.5,30.10,SE,140,0.0,0.0,80,0.00,,SKC,0.00,VWS V13.01,2013-02-04 16:41:00,
2013-02-04 08:51:00,42.2,36.5,30.09,ESE,123,0.0,0.0,80,0.00,,SKC,0.00,VWS V13.01,2013-02-04 16:51:00,
2013-02-04 09:01:00,42.3,36.6,30.09,ESE,120,0.0,0.0,80,0.00,,SKC,0.00,VWS V13.01,2013-02-04 17:01:00,
2013-02-04 09:11:00,42.5,36.8,30.09,SE,139,0.0,0.0,80,0.00,,SKC,0.00,VWS V13.01,2013-02-04 17:11:00,
2013-02-04 09:21:00,42.6,36.9,30.08,SSE,151,0.0,0.0,80,0.00,,SKC,0.00,VWS V13.01,2013-02-04 17:21:00,
2013-02-04 09:31:00,42.8,36.8,30.08,SE,134,0.0,0.0,79,0.00,,SKC,0.00,VWS V13.01,2013-02-04 17:31:00,
2013-02-04 09:41:00,43.1,37.0,30.08,East,92,0.0,0.0,79,0.00,,SKC,0.00,VWS V13.01,2013-02-04 17:41:00,
2013-02-04 09:51:00,43.3,36.9,30.08,ENE,77,0.0,0.0,78,0.00,,SKC,0.00,VWS V13.01,2013-02-04 17:51:00,
2013-02-04 10:11:00,43.9,37.5,30.08,ESE,115,0.0,0.0,78,0.00,,SKC,0.00,VWS V13.01,2013-02-04 18:11:00,
2013-02-04 10:21:00,44.1,37.7,30.08,SE,136,0.0,0.0,78,0.00,,SKC,0.00,VWS V13.01,2013-02-04 18:21:00,
2013-02-04 10:31:00,44.6,38.2,30.09,SE,136,0.0,0.0,78,0.00,,SKC,0.00,VWS V13.01,2013-02-04 18:31:00,
2013-02-04 10:41:00,44.9,38.5,30.09,SW,228,0.0,0.0,78,0.00,,SKC,0.00,VWS V13.01,2013-02-04 18:41:00,
2013-02-04 10:51:00,45.4,38.6,30.08,SSW,198,0.0,0.0,77,0.00,,SKC,0.00,VWS V13.01,2013-02-04 18:51:00,
2013-02-04 11:01:00,45.7,38.6,30.08,SSW,211,0.0,0.0,76,0.00,,SKC,0.00,VWS V13.01,2013-02-04 19:01:00,
2013-02-04 11:11:00,46.2,39.1,30.08,West,266,0.0,0.0,76,0.00,,SKC,0.00,VWS V13.01,2013-02-04 19:11:00,
2013-02-04 11:21:00,46.7,39.2,30.07,West,266,0.0,0.0,75,0.00,,SKC,0.00,VWS V13.01,2013-02-04 19:21:00,
2013-02-04 11:31:00,47.0,39.2,30.06,West,266,0.0,0.0,74,0.00,,SKC,0.00,VWS V13.01,2013-02-04 19:31:00,
2013-02-04 11:41:00,47.3,38.7,30.06,North,352,0.0,0.0,72,0.00,,SKC,0.00,VWS V13.01,2013-02-04 19:41:00,
2013-02-04 11:51:00,47.6,39.0,30.05,North,352,0.0,0.0,72,0.00,,SKC,0.00,VWS V13.01,2013-02-04 19:51:00,
2013-02-04 12:01:00,47.9,39.3,30.04,North,352,0.0,0.0,72,0.00,,SKC,0.00,VWS V13.01,2013-02-04 20:01:00,
2013-02-04 12:11:00,48.0,39.8,30.04,North,352,0.0,0.0,73,0.00,,SKC,0.00,VWS V13.01,2013-02-04 20:11:00,
2013-02-04 12:21:00,48.2,40.0,30.04,NE,48,0.0,0.0,73,0.00,,SKC,0.00,VWS V13.01,2013-02-04 20:21:00,
2013-02-04 12:31:00,48.2,40.3,30.03,NNE,30,0.0,0.0,74,0.00,,SKC,0.00,VWS V13.01,2013-02-04 20:31:00,
2013-02-04 12:41:00,48.5,40.6,30.03,North,358,0.0,0.0,74,0.00,,SKC,0.00,VWS V13.01,2013-02-04 20:41:00,
2013-02-04 12:51:00,48.8,41.2,30.03,WNW,295,0.0,0.0,75,0.00,,SKC,0.00,VWS V13.01,2013-02-04 20:51:00,
2013-02-04 13:01:00,48.8,40.9,30.02,NNW,328,0.0,0.0,74,0.00,,SKC,0.00,VWS V13.01,2013-02-04 21:01:00,
2013-02-04 13:11:00,49.1,41.2,30.02,NNW,328,0.0,0.0,74,0.00,,SKC,0.00,VWS V13.01,2013-02-04 21:11:00,
2013-02-04 13:21:00,49.5,41.2,30.01,North,358,0.0,0.0,73,0.00,,SKC,0.00,VWS V13.01,2013-02-04 21:21:00,
2013-02-04 13:31:00,49.8,41.5,30.01,NNW,332,0.0,0.0,73,0.00,,SKC,0.00,VWS V13.01,2013-02-04 21:31:00,
2013-02-04 13:41:00,49.9,41.2,30.01,NNW,330,0.0,0.0,72,0.00,,SKC,0.00,VWS V13.01,2013-02-04 21:41:00,
2013-02-04 13:51:00,50.2,41.5,30.00,NNW,330,0.0,0.0,72,0.00,,SKC,0.00,VWS V13.01,2013-02-04 21:51:00,
2013-02-04 14:01:00,50.4,41.4,30.00,NNW,330,0.0,0.0,71,0.00,,SKC,0.00,VWS V13.01,2013-02-04 22:01:00,
2013-02-04 14:11:00,50.7,41.7,30.00,NNW,330,0.0,0.0,71,0.00,,SKC,0.00,VWS V13.01,2013-02-04 22:11:00,
2013-02-04 14:21:00,50.8,41.4,29.99,NNW,330,0.0,0.0,70,0.00,,SKC,0.00,VWS V13.01,2013-02-04 22:21:00,
2013-02-04 14:31:00,51.0,41.6,29.99,NNW,330,0.0,0.0,70,0.00,,SKC,0.00,VWS V13.01,2013-02-04 22:31:00,
2013-02-04 14:41:00,51.0,41.6,29.99,NNW,330,0.0,0.0,70,0.00,,SKC,0.00,VWS V13.01,2013-02-04 22:41:00,
2013-02-04 14:51:00,50.8,41.4,29.98,NNW,330,0.0,0.0,70,0.00,,SKC,0.00,VWS V13.01,2013-02-04 22:51:00,
2013-02-04 15:01:00,51.0,41.6,29.98,NNW,328,0.0,0.0,70,0.00,,SKC,0.00,VWS V13.01,2013-02-04 23:01:00,
2013-02-04 15:11:00,51.0,41.2,29.98,NNW,330,0.0,0.0,69,0.00,,SKC,0.00,VWS V13.01,2013-02-04 23:11:00,
2013-02-04 15:21:00,50.8,41.4,29.98,NNW,330,0.0,0.0,70,0.00,,SKC,0.00,VWS V13.01,2013-02-04 23:21:00,
2013-02-04 15:31:00,50.7,41.3,29.98,NNW,330,0.0,0.0,70,0.00,,SKC,0.00,VWS V13.01,2013-02-04 23:31:00,
2013-02-04 15:41:00,50.5,41.5,29.98,NNW,330,0.0,0.0,71,0.00,,SKC,0.00,VWS V13.01,2013-02-04 23:41:00,
2013-02-04 15:51:00,50.5,41.5,29.98,NNW,330,0.0,0.0,71,0.00,,SKC,0.00,VWS V13.01,2013-02-04 23:51:00,
2013-02-04 16:01:00,50.4,41.7,29.98,NNW,330,0.0,0.0,72,0.00,,SKC,0.00,VWS V13.01,2013-02-05 00:01:00,
2013-02-04 16:11:00,50.2,41.5,29.98,NNW,330,0.0,0.0,72,0.00,,SKC,0.00,VWS V13.01,2013-02-05 00:11:00,
2013-02-04 16:21:00,50.2,41.5,29.98,NNW,330,0.0,0.0,72,0.00,,SKC,0.00,VWS V13.01,2013-02-05 00:21:00,
2013-02-04 16:31:00,50.1,41.8,29.98,NNW,330,0.0,0.0,73,0.00,,SKC,0.00,VWS V13.01,2013-02-05 00:31:00,
2013-02-04 16:41:00,49.9,41.6,29.98,NNW,330,0.0,0.0,73,0.00,,SKC,0.00,VWS V13.01,2013-02-05 00:41:00,
2013-02-04 16:51:00,49.8,41.5,29.97,NNW,330,0.0,0.0,73,0.00,,SKC,0.00,VWS V13.01,2013-02-05 00:51:00,
2013-02-04 17:01:00,49.8,41.5,29.97,NNW,330,0.0,0.0,73,0.00,,SKC,0.00,VWS V13.01,2013-02-05 01:01:00,
2013-02-04 17:11:00,49.8,41.9,29.97,NNW,330,0.0,0.0,74,0.00,,SKC,0.00,VWS V13.01,2013-02-05 01:11:00,
2013-02-04 17:21:00,49.6,41.7,29.97,NNW,330,0.0,0.0,74,0.00,,SKC,0.00,VWS V13.01,2013-02-05 01:21:00,
2013-02-04 17:31:00,49.4,41.8,29.97,NNW,330,0.0,0.0,75,0.00,,SKC,0.00,VWS V13.01,2013-02-05 01:31:00,
2013-02-04 17:41:00,49.2,42.0,29.97,NNW,330,0.0,0.0,76,0.00,,SKC,0.00,VWS V13.01,2013-02-05 01:41:00,
2013-02-04 17:51:00,48.9,42.0,29.97,NNW,330,0.0,0.0,77,0.00,,SKC,0.00,VWS V13.01,2013-02-05 01:51:00,
2013-02-04 18:01:00,48.6,42.1,29.96,NNW,330,0.0,0.0,78,0.00,,SKC,0.00,VWS V13.01,2013-02-05 02:01:00,
2013-02-04 18:11:00,48.3,41.8,29.96,NNW,330,0.0,0.0,78,0.00,,SKC,0.00,VWS V13.01,2013-02-05 02:11:00,
2013-02-04 18:21:00,47.9,41.7,29.95,NNW,330,0.0,0.0,79,0.00,,SKC,0.00,VWS V13.01,2013-02-05 02:21:00,
2013-02-04 18:31:00,47.4,41.5,29.95,NNW,330,0.0,0.0,80,0.00,,SKC,0.00,VWS V13.01,2013-02-05 02:31:00,
2013-02-04 18:41:00,46.8,41.3,29.95,NNW,330,0.0,0.0,81,0.00,,SKC,0.00,VWS V13.01,2013-02-05 02:41:00,
2013-02-04 18:51:00,46.5,41.0,29.93,NNW,330,0.0,0.0,81,0.00,,SKC,0.00,VWS V13.01,2013-02-05 02:51:00,
2013-02-04 19:01:00,46.2,41.0,29.92,NNW,330,0.0,0.0,82,0.00,,SKC,0.00,VWS V13.01,2013-02-05 03:01:00,
2013-02-04 19:11:00,46.0,40.8,29.92,NNW,330,0.0,0.0,82,0.00,,SKC,0.00,VWS V13.01,2013-02-05 03:11:00,
2013-02-04 19:21:00,45.8,40.9,29.92,NNW,330,0.0,0.0,83,0.00,,SKC,0.00,VWS V13.01,2013-02-05 03:21:00,
2013-02-04 19:31:00,45.8,40.9,29.92,NNW,330,0.0,0.0,83,0.00,,SKC,0.00,VWS V13.01,2013-02-05 03:31:00,
2013-02-04 19:41:00,45.8,41.2,29.92,NNW,330,0.0,0.0,84,0.00,,SKC,0.00,VWS V13.01,2013-02-05 03:41:00,
2013-02-04 19:51:00,45.8,41.2,29.91,NNW,330,0.0,0.0,84,0.00,,SKC,0.00,VWS V13.01,2013-02-05 03:51:00,
2013-02-04 20:01:00,45.8,41.2,29.90,NNW,330,0.0,0.0,84,0.00,,SKC,0.00,VWS V13.01,2013-02-05 04:01:00,
2013-02-04 20:11:00,45.7,41.2,29.90,ESE,110,0.0,0.0,84,0.00,,SKC,0.00,VWS V13.01,2013-02-05 04:11:00,
2013-02-04 20:21:00,45.8,41.2,29.90,East,96,0.0,0.0,84,0.00,,SKC,0.00,VWS V13.01,2013-02-05 04:21:00,
2013-02-04 20:31:00,45.8,41.2,29.89,SE,134,0.0,0.0,84,0.00,,SKC,0.00,VWS V13.01,2013-02-05 04:31:00,
2013-02-04 20:41:00,46.1,41.5,29.89,ESE,114,0.0,0.0,84,0.00,,SKC,0.00,VWS V13.01,2013-02-05 04:41:00,
2013-02-04 20:51:00,46.2,41.6,29.89,SE,132,0.0,0.0,84,0.00,,SKC,0.00,VWS V13.01,2013-02-05 04:51:00,
2013-02-04 21:01:00,46.2,41.6,29.90,SE,132,0.0,0.0,84,0.00,,SKC,0.00,VWS V13.01,2013-02-05 05:01:00,
2013-02-04 21:11:00,46.2,41.6,29.90,SE,133,0.0,0.0,84,0.00,,SKC,0.00,VWS V13.01,2013-02-05 05:11:00,
2013-02-04 21:21:00,46.2,41.3,29.90,SE,133,0.0,0.0,83,0.00,,SKC,0.00,VWS V13.01,2013-02-05 05:21:00,
2013-02-04 21:31:00,46.1,41.2,29.90,SSE,164,0.0,0.0,83,0.00,,SKC,0.00,VWS V13.01,2013-02-05 05:31:00,
2013-02-04 21:41:00,45.8,40.9,29.90,SSW,201,0.0,0.0,83,0.00,,SKC,0.00,VWS V13.01,2013-02-05 05:41:00,
2013-02-04 21:51:00,45.7,41.2,29.91,SSW,201,0.0,0.0,84,0.00,,SKC,0.00,VWS V13.01,2013-02-05 05:51:00,
2013-02-04 22:01:00,45.5,41.0,29.91,SSW,194,0.0,0.0,84,0.00,,SKC,0.00,VWS V13.01,2013-02-05 06:01:00,
2013-02-04 22:11:00,45.5,41.0,29.91,South,189,0.0,0.0,84,0.00,,SKC,0.00,VWS V13.01,2013-02-05 06:11:00,
2013-02-04 22:21:00,45.7,41.2,29.92,SSW,204,0.0,0.0,84,0.00,,SKC,0.00,VWS V13.01,2013-02-05 06:21:00,
2013-02-04 22:31:00,45.7,41.2,29.91,SSW,197,0.0,0.0,84,0.00,,SKC,0.00,VWS V13.01,2013-02-05 06:31:00,
2013-02-04 22:41:00,45.7,41.2,29.91,South,188,0.0,0.0,84,0.00,,SKC,0.00,VWS V13.01,2013-02-05 06:41:00,
2013-02-04 22:51:00,45.7,41.2,29.92,South,188,0.0,0.0,84,0.00,,SKC,0.00,VWS V13.01,2013-02-05 06:51:00,
2013-02-04 23:01:00,45.5,41.0,29.92,South,189,0.0,0.0,84,0.00,,SKC,0.00,VWS V13.01,2013-02-05 07:01:00,
2013-02-04 23:11:00,45.4,40.9,29.92,SSW,198,0.0,0.0,84,0.00,,SKC,0.00,VWS V13.01,2013-02-05 07:11:00,
2013-02-04 23:21:00,45.5,40.7,29.92,SSW,209,0.0,0.0,83,0.00,,SKC,0.00,VWS V13.01,2013-02-05 07:21:00,
2013-02-04 23:31:00,45.7,40.5,29.93,SSW,193,0.0,0.0,82,0.00,,SKC,0.00,VWS V13.01,2013-02-05 07:31:00,
2013-02-04 23:41:00,45.7,40.5,29.93,SW,220,0.0,0.0,82,0.00,,SKC,0.00,VWS V13.01,2013-02-05 07:41:00,
2013-02-04 23:51:00,45.8,40.6,29.93,SW,235,0.0,0.0,82,0.00,,SKC,0.00,VWS V13.01,2013-02-05 07:51:00,